• Join FlightAware (Why Join?)
  • Login
  • US Flag 
12:45AM EDT


 

Airport Tracker/Info


-or-


 

Live Flight TrackerFlight Track Log ✈ JBU56 ✈ 24-Apr-2014 ✈ KIAD - KBOS

Flight Track Log - Related Links

Times and Time Zones

All times are in EDT time to prevent confusion due to time zone crossing. See the JBU56 flight status page for this flight to view local times or setup timezone preferences in your user account.

Time Position Orientation Groundspeed Altitude Reporting Facility
EDT Latitude Longitude Course Direction KTS MPH feet Rate Location/Type
08:46AM 38.9667 -77.5000 78° East 162 186 2,100  Level Potomac TRACON
08:47AM 39.0167 -77.5000 360° North 202 232 4,600 2,700 Climbing Potomac TRACON
08:48AM 39.0667 -77.5000 360° North 243 280 7,300 2,820 Climbing Potomac TRACON
08:49AM 39.1167 -77.4333 46° Northeast 287 330 10,000 1,860 Climbing Potomac TRACON
08:51AM 39.0462 -76.8567 78° East  Level FlightAware Approximate
08:51AM 39.1169 -77.1803 90° East 387 445 13,400  Level Washington Center
08:52AM 39.0436 -77.0758 132° Southeast 408 470 16,100 2,100 Climbing Washington Center
08:53AM 38.9647 -76.9678 133° Southeast 417 480 17,900 1,800 Climbing Washington Center
08:54AM 38.9742 -76.8144 85° East 434 499 19,900 2,040 Climbing Washington Center
08:55AM 39.0181 -76.6736 68° East 429 494 22,100 1,500 Climbing Washington Center
08:57AM 39.0608 -76.5275 69° East 431 496 23,000 420 Climbing Washington Center
08:58AM 39.1139 -76.3539 68° East 435 501 23,000  Level Washington Center
08:59AM 39.1536 -76.2036 71° East 439 505 23,000  Level Washington Center
09:00AM 39.1725 -76.0444 81° East 449 517 23,000  Level Washington Center
09:01AM 39.1994 -75.8889 77° East 446 513 23,000 960 Level Washington Center
09:02AM 39.2733 -75.7717 51° Northeast 421 484 25,000 1,800 Climbing Washington Center
09:03AM 39.3731 -75.6467 44° Northeast 418 481 26,800 1,500 Climbing Washington Center
09:04AM 39.4586 -75.5367 45° Northeast 430 495 28,200 1,320 Climbing Washington Center
09:05AM 39.5436 -75.4250 45° Northeast 435 501 29,600 1,320 Climbing Washington Center
09:06AM 39.6300 -75.3119 45° Northeast 438 504 31,000 660 Climbing Washington Center
09:07AM 39.7222 -75.1892 46° Northeast 440 506 31,000  Level New York Center
09:08AM 39.7975 -75.0750 49° Northeast 455 524 31,000  Level New York Center
09:09AM 39.8831 -74.9531 48° Northeast 455 524 31,000  Level New York Center
09:10AM 39.9772 -74.8206 47° Northeast 455 524 31,000  Level New York Center
09:11AM 40.0539 -74.7111 48° Northeast 455 524 31,000  Level New York Center
09:12AM 40.1333 -74.5853 50° Northeast 450 518 31,000  Level New York Center
09:13AM 40.2253 -74.4436 50° Northeast 455 524 31,000  Level New York Center
09:14AM 40.3061 -74.3172 50° Northeast 455 524 31,000  Level New York Center
09:15AM 40.3869 -74.1906 50° Northeast 455 524 31,000  Level New York Center
09:16AM 40.4678 -74.0611 51° Northeast 455 524 31,000  Level New York Center
09:17AM 40.5483 -73.9364 50° Northeast 455 524 31,000 -240 Level New York Center
09:19AM 40.7314 -73.6453 50° Northeast 446 513 30,300 -960 Descending Boston Center
09:20AM 40.8092 -73.5194 51° Northeast 446 513 28,000 -1,680 Descending Boston Center
09:21AM 40.8861 -73.3983 50° Northeast 436 502 27,000 -540 Descending Boston Center
09:22AM 40.9664 -73.2844 47° Northeast 429 494 27,000  Level Boston Center
09:23AM 41.0436 -73.1669 49° Northeast 427 491 27,000 -720 Level Boston Center
09:24AM 41.1233 -73.0483 48° Northeast 424 488 25,600 -1,740 Descending Boston Center
09:25AM 41.1961 -72.9406 48° Northeast 409 471 23,500 -1,320 Descending Boston Center
09:26AM 41.2556 -72.8183 57° Northeast 398 458 23,000 -300 Descending Boston Center
09:27AM 41.3081 -72.6742 64° Northeast 407 468 23,000  Level Boston Center
09:28AM 41.3589 -72.5369 64° Northeast 409 471 23,000  Level Boston Center
09:29AM 41.4086 -72.3994 64° Northeast 410 472 23,000  Level Boston Center
09:30AM 41.4589 -72.2653 63° Northeast 408 470 23,000  Level Boston Center
09:31AM 41.5078 -72.1297 64° Northeast 407 468 23,000 -60 Level Boston Center
09:32AM 41.5619 -71.9800 64° Northeast 407 468 22,900 -600 Descending Boston Center
09:33AM 41.6044 -71.8353 69° East 417 480 21,900 -1,500 Descending Boston Center
09:34AM 41.6469 -71.6914 68° East 417 480 19,900 -2,220 Descending Boston Center
09:35AM 41.6908 -71.5458 68° East 393 452 17,500 -2,100 Descending Boston Center
09:36AM 41.7317 -71.4133 68° East 362 417 15,700 -1,860 Descending Boston Center
09:37AM 41.7792 -71.3039 60° Northeast 345 397 13,800 -1,800 Descending Boston Center
09:38AM 41.8250 -71.1967 60° Northeast 336 387 12,100 -1,500 Descending Boston Center
09:39AM 41.8692 -71.0953 60° Northeast 319 367 10,800 -1,380 Descending Boston Center
09:40AM 41.9247 -71.0122 48° Northeast 278 320 9,300 -1,440 Descending Boston Center
09:41AM 41.9717 -70.9356 51° Northeast 269 310 7,900 -1,440 Descending Boston Center
09:42AM 41.9989 -70.8453 68° East 261 300 6,400 -960 Descending Boston Center
09:44AM 42.0208 -70.7633 70° East 259 298 6,000 -840 Descending Boston Center
09:45AM 42.0439 -70.6733 71° East 258 297 4,800 -1,020 Descending Boston Center
09:46AM 42.0928 -70.6431 25° Northeast 245 282 4,000 -420 Descending Boston Center
09:47AM 42.1267 -70.6872 316° Northwest 188 216 4,000  Level Boston Center
09:48AM 42.1572 -70.7281 315° West 162 186 4,000  Level Boston Center
09:49AM 42.1903 -70.7708 316° Northwest 144 166 4,000  Level Boston Center
09:50AM 42.2181 -70.8086 315° West 143 165 4,000 -420 Level Boston Center
09:51AM 42.2467 -70.8483 314° West 143 165 3,200 -840 Descending Boston Center
09:52AM 42.2747 -70.8856 316° Northwest 143 165 2,400 -840 Descending Boston Center
09:53AM 42.3033 -70.9231 316° Northwest 138 159 1,600 -720 Descending Boston Center
09:54AM 42.3231 -70.9478 317° Northwest 121 139 1,000 -660 Descending Boston Center
09:55AM 42.3464 -70.9792 315° West 118 136 300 -420 Descending Boston Center
09:56AM 42.3692 -71.0114 314° West 118 136 200 -120 Descending Boston Center